Mount Hulda, Missouri
Current Conditions -  °F | °C
As of 11:53 PM on Tuesday 25 Nov 2014 (Local Time) from KDMO Reporting Station
Clear Clear  
Wind Chill: -4°   Ceiling: Unl
Heat Index:   Visibility: 10mi
Dew Point: -6°   Wind: 9mph
Humidity: 64%   Direction: 180°S
Pressure: 30.07"   Gusts: NA
Location:  38.4446°N, 93.178°W
Report Text: KDMO 260553Z AUTO 18008KT 10SM CLR 00/M06 A3007 RMK AO2 SLP192 T00001061 10017 21022 400501044 58015
Loading
Personal Weather Stations






























Interactive Weather Map New forecast layout! Learn more

10-Day Weather Forecast

Advertisements
Track Severe Weather on mobile